createdAt,value
2023-02-22T00:02:57.590Z,48.97
2023-02-22T00:05:24.307Z,51.53
2023-02-22T00:08:02.127Z,55.88
2023-02-22T00:10:54.224Z,51.43
2023-02-22T00:13:31.013Z,55.35
2023-02-22T00:18:41.153Z,48.05
2023-02-22T00:21:17.686Z,47.28
2023-02-22T00:23:57.270Z,48.40
2023-02-22T00:26:23.913Z,46.50
2023-02-22T00:28:59.716Z,49.95
2023-02-22T00:31:26.450Z,50.58
2023-02-22T00:33:57.105Z,50.03
2023-02-22T00:36:23.858Z,46.90
2023-02-22T00:38:56.546Z,50.13
2023-02-22T00:41:31.851Z,47.92
2023-02-22T00:44:11.744Z,51.95
2023-02-22T00:46:44.435Z,52.58
2023-02-22T00:49:20.909Z,53.80
2023-02-22T00:51:56.709Z,46.92
2023-02-22T00:54:33.017Z,50.25
2023-02-22T00:57:12.807Z,50.20
2023-02-22T00:59:56.073Z,48.53
2023-02-22T01:02:45.250Z,55.93
2023-02-22T01:05:22.348Z,53.03
2023-02-22T01:08:02.650Z,53.38
2023-02-22T01:10:45.380Z,46.22
2023-02-22T01:13:13.018Z,53.63
2023-02-22T01:15:43.408Z,48.70
2023-02-22T01:18:10.533Z,47.95
2023-02-22T01:20:39.907Z,48.35
2023-02-22T01:23:07.345Z,49.60
2023-02-22T01:25:40.345Z,45.75
2023-02-22T01:28:09.091Z,51.20
2023-02-22T01:31:13.811Z,50.00
2023-02-22T01:36:22.366Z,49.30
2023-02-22T01:38:52.326Z,49.95
2023-02-22T01:44:37.055Z,43.63
2023-02-22T01:47:16.544Z,47.72
2023-02-22T01:52:41.297Z,48.42
2023-02-22T01:55:18.080Z,48.40
2023-02-22T01:57:54.808Z,45.70
2023-02-22T02:00:34.052Z,45.00
2023-02-22T02:03:22.130Z,44.83
2023-02-22T02:08:58.241Z,45.47
2023-02-22T02:11:28.860Z,45.97
2023-02-22T02:14:04.774Z,46.80
2023-02-22T02:16:52.470Z,48.72
2023-02-22T02:19:34.229Z,49.47
2023-02-22T02:22:18.540Z,42.70
2023-02-22T02:28:55.544Z,44.60
2023-02-22T02:31:56.420Z,44.20
2023-02-22T02:38:20.860Z,45.37
2023-02-22T02:41:32.377Z,48.13
2023-02-22T02:44:15.486Z,45.22
2023-02-22T02:46:48.558Z,48.53
2023-02-22T02:49:54.926Z,45.90
2023-02-22T02:55:21.046Z,46.40
2023-02-22T02:57:59.922Z,45.33
2023-02-22T03:00:42.079Z,43.70
2023-02-22T03:03:55.678Z,46.72
2023-02-22T03:17:48.540Z,49.05
2023-02-22T03:20:53.468Z,52.00
2023-02-22T03:30:41.781Z,51.33
2023-02-22T03:36:37.547Z,48.97
2023-02-22T03:39:06.606Z,47.15
2023-02-22T03:41:50.339Z,53.08
2023-02-22T03:44:22.772Z,49.67
2023-02-22T03:50:13.635Z,50.27
2023-02-22T03:58:16.199Z,54.65
2023-02-22T04:00:51.686Z,59.15
2023-02-22T04:03:30.545Z,51.37
2023-02-22T04:08:37.874Z,50.72
2023-02-22T04:11:14.147Z,52.83
2023-02-22T04:13:53.002Z,54.83
2023-02-22T04:16:19.722Z,53.70
2023-02-22T04:18:49.540Z,52.03
2023-02-22T04:21:30.918Z,58.45
2023-02-22T04:23:58.050Z,57.63
2023-02-22T04:26:31.072Z,55.25
2023-02-22T04:28:57.903Z,56.93
2023-02-22T04:31:31.210Z,62.05
2023-02-22T04:33:57.997Z,64.55
2023-02-22T04:36:40.222Z,61.83
2023-02-22T04:39:13.329Z,64.85
2023-02-22T04:41:40.069Z,57.47
2023-02-22T04:47:37.247Z,72.85
2023-02-22T04:50:16.508Z,58.67
2023-02-22T04:52:43.215Z,58.38
2023-02-22T04:58:48.124Z,59.17
2023-02-22T05:01:16.184Z,69.03
2023-02-22T05:03:51.241Z,61.30
2023-02-22T05:06:30.521Z,66.55
2023-02-22T05:08:57.367Z,75.93
2023-02-22T05:11:33.407Z,60.42
2023-02-22T05:14:22.705Z,58.60
2023-02-22T05:16:59.726Z,62.83
2023-02-22T05:19:55.599Z,68.05
2023-02-22T05:22:22.340Z,75.47
2023-02-22T05:25:09.216Z,76.22
2023-02-22T05:27:44.986Z,94.68
2023-02-22T05:30:12.353Z,106.78
2023-02-22T05:32:50.420Z,76.50
2023-02-22T06:12:17.118Z,127.25
2023-02-22T06:14:52.592Z,93.97
2023-02-22T06:17:20.700Z,129.30
2023-02-22T06:19:47.799Z,144.07
2023-02-22T06:22:46.700Z,186.40
2023-02-22T06:25:20.301Z,200.43
2023-02-22T06:27:55.837Z,131.82
2023-02-22T06:33:24.687Z,89.78
2023-02-22T06:35:52.979Z,133.50
2023-02-22T06:38:37.991Z,98.55
2023-02-22T06:41:15.947Z,122.03
2023-02-22T06:43:52.357Z,113.77
2023-02-22T06:46:25.467Z,96.88
2023-02-22T06:49:10.064Z,135.45
2023-02-22T06:51:55.202Z,79.75
2023-02-22T06:54:23.462Z,86.80
2023-02-22T06:57:02.454Z,73.90
2023-02-22T07:18:22.819Z,70.25
2023-02-22T07:21:03.741Z,62.33
2023-02-22T07:23:39.429Z,54.83
2023-02-22T07:26:07.576Z,65.85
2023-02-22T07:28:40.933Z,76.03
2023-02-22T07:33:49.188Z,70.05
2023-02-22T07:36:16.106Z,62.50
2023-02-22T07:38:42.818Z,66.60
2023-02-22T07:41:21.655Z,49.60
2023-02-22T07:43:57.640Z,56.45
2023-02-22T07:46:33.989Z,52.75
2023-02-22T07:49:10.028Z,54.60
2023-02-22T07:51:49.412Z,63.22
2023-02-22T07:54:30.506Z,61.28
2023-02-22T07:57:06.694Z,59.45
2023-02-22T07:59:40.872Z,56.15
2023-02-22T08:02:25.818Z,74.23
2023-02-22T08:05:06.990Z,60.42
2023-02-22T08:07:34.763Z,59.65
2023-02-22T08:10:20.954Z,56.95
2023-02-22T08:12:59.627Z,51.72
2023-02-22T08:15:39.999Z,58.83
2023-02-22T08:18:12.794Z,53.13
2023-02-22T08:20:48.286Z,48.08
2023-02-22T08:23:26.311Z,49.20
2023-02-22T08:25:53.598Z,51.78
2023-02-22T08:28:23.580Z,52.17
2023-02-22T08:30:50.885Z,49.30
2023-02-22T08:33:32.771Z,45.60
2023-02-22T08:36:06.034Z,43.00
2023-02-22T08:38:32.984Z,44.65
2023-02-22T08:41:14.403Z,60.80
2023-02-22T08:44:02.592Z,52.33
2023-02-22T08:46:30.864Z,43.00
2023-02-22T08:51:41.287Z,41.28
2023-02-22T08:54:08.596Z,42.00
2023-02-22T09:26:27.668Z,32.85
2023-02-22T09:29:00.620Z,36.55
2023-02-22T09:34:28.285Z,36.33
2023-02-22T09:37:02.066Z,35.28
2023-02-22T09:39:38.624Z,35.95
2023-02-22T09:46:09.256Z,37.92
2023-02-22T09:52:25.663Z,36.38
2023-02-22T09:55:20.736Z,36.92
2023-02-22T09:57:48.773Z,37.00
2023-02-22T10:00:58.606Z,44.72
2023-02-22T10:03:48.515Z,42.23
2023-02-22T10:06:22.993Z,40.20
2023-02-22T10:11:35.949Z,40.67
2023-02-22T10:14:48.860Z,43.00
2023-02-22T10:17:33.886Z,37.63
2023-02-22T10:23:24.299Z,38.45
2023-02-22T10:26:01.247Z,40.70
2023-02-22T10:34:49.506Z,40.83
2023-02-22T10:37:26.239Z,37.47
2023-02-22T10:40:16.987Z,40.92
2023-02-22T10:43:10.150Z,39.45
2023-02-22T10:45:40.898Z,38.63
2023-02-22T10:51:11.750Z,35.80
2023-02-22T10:54:26.135Z,37.90
2023-02-22T10:57:03.712Z,38.67
2023-02-22T10:59:47.242Z,41.60
2023-02-22T11:02:35.190Z,36.67
2023-02-22T11:05:28.257Z,40.40
2023-02-22T11:08:35.531Z,42.03
2023-02-22T11:11:22.458Z,36.15
2023-02-22T11:14:02.877Z,36.37
2023-02-22T11:16:53.378Z,37.60
2023-02-22T11:19:30.112Z,34.35
2023-02-22T11:22:18.948Z,39.17
2023-02-22T11:25:00.602Z,32.45
2023-02-22T11:27:41.684Z,36.97
2023-02-22T11:30:31.738Z,35.85
2023-02-22T11:33:19.099Z,36.00
2023-02-22T11:35:57.679Z,36.00
2023-02-22T11:38:27.397Z,34.05
2023-02-22T11:41:29.580Z,36.53
2023-02-22T11:44:29.251Z,32.90
2023-02-22T11:47:02.747Z,32.33
2023-02-22T11:49:48.238Z,30.70
2023-02-22T11:52:36.284Z,34.90
2023-02-22T11:55:36.341Z,33.37
2023-02-22T12:01:22.272Z,34.45
2023-02-22T12:04:31.348Z,30.42
2023-02-22T12:07:41.834Z,32.50
2023-02-22T12:10:53.075Z,31.97
2023-02-22T12:13:38.229Z,32.78
2023-02-22T12:16:40.256Z,31.50
2023-02-22T12:19:34.600Z,32.78
2023-02-22T12:22:18.724Z,33.20
2023-02-22T12:25:24.912Z,32.47
2023-02-22T12:28:30.462Z,29.83
2023-02-22T12:31:15.316Z,31.10
2023-02-22T12:34:07.341Z,30.73
2023-02-22T12:37:03.238Z,31.75
2023-02-22T12:40:10.005Z,28.97
2023-02-22T12:42:59.409Z,30.98
2023-02-22T12:48:33.125Z,27.10
2023-02-22T12:51:25.873Z,34.58
2023-02-22T12:54:53.116Z,34.60
2023-02-22T12:57:38.005Z,30.05
2023-02-22T13:03:44.121Z,30.02
2023-02-22T13:06:53.722Z,27.98
2023-02-22T13:09:49.469Z,36.47
2023-02-22T13:12:55.968Z,28.10
2023-02-22T13:15:34.779Z,35.92
2023-02-22T13:21:38.205Z,31.00
2023-02-22T13:27:50.606Z,28.27
2023-02-22T13:30:35.468Z,34.47
2023-02-22T13:37:10.466Z,30.48
2023-02-22T13:40:04.942Z,26.97
2023-02-22T13:43:16.154Z,29.88
2023-02-22T13:45:56.291Z,26.05
2023-02-22T13:48:54.791Z,28.38
2023-02-22T13:58:18.517Z,29.10
2023-02-22T14:00:57.293Z,24.10
2023-02-22T14:06:42.050Z,27.08
2023-02-22T14:09:51.103Z,28.70
2023-02-22T14:12:31.544Z,27.63
2023-02-22T14:15:26.779Z,29.83
2023-02-22T14:18:17.249Z,28.65
2023-02-22T14:20:44.242Z,30.40
2023-02-22T14:26:35.791Z,34.33
2023-02-22T14:29:18.965Z,28.55
2023-02-22T14:31:45.676Z,30.95
2023-02-22T14:34:47.466Z,28.13
2023-02-22T14:37:28.408Z,23.57
2023-02-22T14:40:26.495Z,29.25
2023-02-22T14:43:21.958Z,27.65
2023-02-22T14:45:56.894Z,28.48
2023-02-22T14:48:41.173Z,25.20
2023-02-22T14:54:20.665Z,30.23
2023-02-22T14:57:13.934Z,27.27
2023-02-22T14:59:50.927Z,27.10
2023-02-22T15:02:19.969Z,30.38
2023-02-22T15:07:59.528Z,28.90
2023-02-22T15:10:51.574Z,30.05
2023-02-22T15:13:23.694Z,29.55
2023-02-22T15:16:00.469Z,35.00
2023-02-22T15:18:44.123Z,31.37
2023-02-22T15:21:17.453Z,33.53
2023-02-22T15:23:49.994Z,29.77
2023-02-22T15:26:51.961Z,30.38
2023-02-22T15:33:20.474Z,27.80
2023-02-22T15:35:59.090Z,30.45
2023-02-22T15:38:31.438Z,34.25
2023-02-22T15:41:21.849Z,34.33
2023-02-22T15:44:22.692Z,34.38
2023-02-22T15:47:06.732Z,34.03
2023-02-22T15:50:24.256Z,33.05
2023-02-22T15:53:04.657Z,35.17
2023-02-22T15:55:40.677Z,33.92
2023-02-22T15:58:09.225Z,30.35
2023-02-22T16:00:38.568Z,32.90
2023-02-22T16:03:19.190Z,34.28
2023-02-22T16:05:53.641Z,33.50
2023-02-22T16:08:54.058Z,36.05
2023-02-22T16:11:46.684Z,33.63
2023-02-22T16:14:36.090Z,37.30
2023-02-22T16:17:21.679Z,33.70
2023-02-22T16:19:48.488Z,36.47
2023-02-22T16:22:41.939Z,36.20
2023-02-22T16:25:43.635Z,42.40
2023-02-22T16:28:29.411Z,37.33
2023-02-22T16:30:59.893Z,41.28
2023-02-22T16:33:32.706Z,45.97
2023-02-22T16:36:08.257Z,45.90
2023-02-22T16:41:17.756Z,48.83
2023-02-22T16:46:42.663Z,45.05
2023-02-22T16:49:51.752Z,47.10
2023-02-22T16:52:22.660Z,46.63
2023-02-22T16:54:54.581Z,45.53
2023-02-22T17:00:48.683Z,50.60
2023-02-22T17:03:21.762Z,48.75
2023-02-22T17:21:33.552Z,52.30
2023-02-22T17:24:00.246Z,51.47
2023-02-22T17:26:35.426Z,60.55
2023-02-22T17:29:11.352Z,57.03
2023-02-22T17:31:50.434Z,56.15
2023-02-22T17:34:29.272Z,65.40
2023-02-22T17:36:56.119Z,75.20
2023-02-22T17:39:29.360Z,73.95
2023-02-22T17:45:25.253Z,81.15
2023-02-22T17:51:18.387Z,87.60
2023-02-22T17:53:48.701Z,78.85
2023-02-22T17:56:27.050Z,81.63
2023-02-22T17:59:08.750Z,81.60
2023-02-22T18:01:46.429Z,88.90
2023-02-22T18:04:28.258Z,86.00
2023-02-22T18:06:57.848Z,88.60
2023-02-22T18:09:30.629Z,88.35
2023-02-22T18:11:59.452Z,92.55
2023-02-22T18:14:26.753Z,91.93
2023-02-22T18:16:53.594Z,95.47
2023-02-22T18:19:23.095Z,92.45
2023-02-22T18:22:03.690Z,93.32
2023-02-22T18:24:35.455Z,95.72
2023-02-22T18:27:02.275Z,94.30
2023-02-22T18:29:29.063Z,92.50
2023-02-22T18:31:55.802Z,97.80
2023-02-22T18:34:23.147Z,97.70
2023-02-22T18:36:52.109Z,93.03
2023-02-22T18:39:19.878Z,93.75
2023-02-22T18:41:46.749Z,90.20
2023-02-22T18:44:13.526Z,90.90
2023-02-22T18:46:40.426Z,88.03
2023-02-22T18:49:16.673Z,93.13
2023-02-22T18:51:43.591Z,94.07
2023-02-22T18:54:14.544Z,88.87
2023-02-22T18:56:41.291Z,89.03
2023-02-22T18:59:09.772Z,90.43
2023-02-22T19:01:36.651Z,87.93
2023-02-22T19:04:03.395Z,84.30
2023-02-22T19:06:30.097Z,89.23
2023-02-22T19:08:56.994Z,85.53
2023-02-22T19:11:24.808Z,88.47
2023-02-22T19:13:57.164Z,85.13
2023-02-22T19:16:25.532Z,86.30
2023-02-22T19:18:53.742Z,86.50
2023-02-22T19:21:21.124Z,84.57
2023-02-22T19:23:48.805Z,78.70
2023-02-22T19:26:22.864Z,71.65
2023-02-22T19:28:53.522Z,83.72
2023-02-22T19:31:26.762Z,75.27
2023-02-22T19:33:53.918Z,74.80
2023-02-22T19:36:22.404Z,76.55
2023-02-22T19:38:49.450Z,74.05
2023-02-22T19:41:21.581Z,74.88
2023-02-22T19:43:52.634Z,71.93
2023-02-22T19:46:20.473Z,71.93
2023-02-22T19:48:51.417Z,68.10
2023-02-22T19:51:20.503Z,69.50
2023-02-22T19:53:47.394Z,72.15
2023-02-22T19:56:19.230Z,72.43
2023-02-22T19:58:49.339Z,73.18
2023-02-22T20:01:19.353Z,73.78
2023-02-22T20:03:46.282Z,69.22
2023-02-22T20:06:13.192Z,75.22
2023-02-22T20:08:49.438Z,70.57
2023-02-22T20:11:25.506Z,74.03
2023-02-22T20:13:58.188Z,73.43
2023-02-22T20:16:25.070Z,76.88
2023-02-22T20:19:01.573Z,81.47
2023-02-22T20:21:33.303Z,72.40
2023-02-22T20:24:02.611Z,79.53
2023-02-22T20:26:31.525Z,75.05
2023-02-22T20:28:59.192Z,74.00
2023-02-22T20:31:28.212Z,77.80
2023-02-22T20:33:58.284Z,80.10
2023-02-22T20:36:30.026Z,75.38
2023-02-22T20:38:59.415Z,78.97
2023-02-22T20:41:30.398Z,81.00
2023-02-22T20:46:39.181Z,76.27
2023-02-22T20:49:17.501Z,77.55
2023-02-22T20:51:45.861Z,74.35
2023-02-22T20:54:16.986Z,74.43
2023-02-22T20:56:45.584Z,75.05
2023-02-22T20:59:21.664Z,69.20
2023-02-22T21:02:02.938Z,69.97
2023-02-22T21:04:29.837Z,67.88
2023-02-22T21:06:56.752Z,82.93
2023-02-22T21:09:23.479Z,76.15
2023-02-22T21:11:50.323Z,80.63
2023-02-22T21:14:17.849Z,69.82
2023-02-22T21:16:47.042Z,80.30
2023-02-22T21:19:14.402Z,78.85
2023-02-22T21:21:41.138Z,75.80
2023-02-22T21:24:08.493Z,73.47
2023-02-22T21:26:39.477Z,76.72
2023-02-22T21:29:06.664Z,80.22
2023-02-22T21:31:36.105Z,76.80
2023-02-22T21:34:03.142Z,76.55
2023-02-22T21:36:31.580Z,74.73
2023-02-22T21:39:00.617Z,80.40
2023-02-22T21:41:29.840Z,77.25
2023-02-22T21:43:58.659Z,74.43
2023-02-22T21:46:31.184Z,81.53
2023-02-22T21:48:59.121Z,87.50
2023-02-22T21:51:29.064Z,80.93
2023-02-22T21:53:55.840Z,83.57
2023-02-22T21:56:25.046Z,80.43
2023-02-22T21:58:56.489Z,84.38
2023-02-22T22:01:38.574Z,82.70
2023-02-22T22:04:06.587Z,85.15
2023-02-22T22:06:33.872Z,85.93
2023-02-22T22:09:02.065Z,85.68
2023-02-22T22:11:29.873Z,83.53
2023-02-22T22:13:58.294Z,80.77
2023-02-22T22:16:27.636Z,82.30
2023-02-22T22:18:56.619Z,80.82
2023-02-22T22:24:09.913Z,79.00
2023-02-22T22:26:38.667Z,80.00
2023-02-22T22:29:07.317Z,83.57
2023-02-22T22:31:34.428Z,75.22
2023-02-22T22:34:07.470Z,88.43
2023-02-22T22:36:34.519Z,80.40
2023-02-22T22:39:07.982Z,86.20
2023-02-22T22:41:44.542Z,81.55
2023-02-22T22:44:13.164Z,77.03
2023-02-22T22:46:41.597Z,88.45
2023-02-22T22:52:22.134Z,81.07
2023-02-22T22:54:48.863Z,78.68
2023-02-22T22:57:21.726Z,83.75
2023-02-22T23:02:49.697Z,82.15
2023-02-22T23:05:29.189Z,80.80
2023-02-22T23:10:38.824Z,80.57
2023-02-22T23:13:20.736Z,80.13
2023-02-22T23:15:49.074Z,87.55
2023-02-22T23:21:10.498Z,84.32
2023-02-22T23:29:22.333Z,88.13
2023-02-22T23:31:51.449Z,78.33
2023-02-22T23:34:19.834Z,84.07
2023-02-22T23:36:47.255Z,93.53
2023-02-22T23:39:18.558Z,83.47
2023-02-22T23:41:45.683Z,87.47
2023-02-22T23:44:18.284Z,86.93
2023-02-22T23:46:49.688Z,85.32
2023-02-22T23:49:25.549Z,84.90
2023-02-22T23:51:58.381Z,82.03
2023-02-22T23:57:06.222Z,82.63
2023-02-22T23:59:33.959Z,96.35
